createdAt,value
2023-11-08T00:00:15.914Z,10.15
2023-11-08T00:03:02.964Z,10.20
2023-11-08T00:05:32.265Z,10.19
2023-11-08T00:07:59.170Z,10.21
2023-11-08T00:10:26.214Z,10.20
2023-11-08T00:12:53.026Z,10.23
2023-11-08T00:15:20.248Z,10.24
2023-11-08T00:17:47.141Z,10.25
2023-11-08T00:20:14.257Z,10.24
2023-11-08T00:22:45.916Z,10.26
2023-11-08T00:25:13.142Z,10.25
2023-11-08T00:27:40.308Z,10.27
2023-11-08T00:30:08.161Z,10.26
2023-11-08T00:32:35.153Z,10.27
2023-11-08T00:35:02.440Z,10.26
2023-11-08T00:37:29.462Z,10.26
2023-11-08T00:39:56.638Z,10.23
2023-11-08T00:42:23.475Z,10.24
2023-11-08T00:44:50.578Z,10.24
2023-11-08T00:47:17.442Z,10.28
2023-11-08T00:49:44.632Z,10.25
2023-11-08T00:52:12.505Z,10.19
2023-11-08T00:54:40.051Z,10.19
2023-11-08T00:57:09.449Z,10.19
2023-11-08T00:59:37.085Z,10.21
2023-11-08T01:02:04.635Z,10.18
2023-11-08T01:04:31.832Z,10.14
2023-11-08T01:06:58.866Z,10.13
2023-11-08T01:09:26.489Z,10.11
2023-11-08T01:11:53.679Z,10.14
2023-11-08T01:14:22.341Z,10.22
2023-11-08T01:16:49.341Z,10.18
2023-11-08T01:19:16.771Z,10.14
2023-11-08T01:21:47.024Z,10.17
2023-11-08T01:24:15.197Z,10.20
2023-11-08T01:26:42.376Z,10.15
2023-11-08T01:29:09.451Z,10.16
2023-11-08T01:31:36.475Z,10.19
2023-11-08T01:34:03.778Z,10.18
2023-11-08T01:36:31.735Z,10.21
2023-11-08T01:38:59.801Z,10.17
2023-11-08T01:41:26.749Z,10.14
2023-11-08T01:43:53.833Z,10.14
2023-11-08T01:46:23.829Z,10.16
2023-11-08T01:48:54.293Z,10.18
2023-11-08T01:51:22.255Z,10.16
2023-11-08T01:53:51.292Z,10.12
2023-11-08T01:56:18.876Z,10.13
2023-11-08T01:58:47.632Z,10.13
2023-11-08T02:01:14.795Z,10.10
2023-11-08T02:03:45.852Z,10.18
2023-11-08T02:06:14.712Z,10.26
2023-11-08T02:08:42.245Z,10.34
2023-11-08T02:11:10.306Z,10.25
2023-11-08T02:13:37.414Z,10.34
2023-11-08T02:16:04.990Z,10.31
2023-11-08T02:18:33.128Z,10.16
2023-11-08T02:21:01.350Z,9.97
2023-11-08T02:23:29.225Z,9.86
2023-11-08T02:25:56.676Z,9.79
2023-11-08T02:28:24.562Z,9.71
2023-11-08T02:30:56.185Z,9.62
2023-11-08T02:33:28.433Z,9.43
2023-11-08T02:35:56.019Z,9.29
2023-11-08T02:38:23.154Z,9.21
2023-11-08T02:40:50.265Z,9.07
2023-11-08T02:43:17.682Z,8.88
2023-11-08T02:45:45.138Z,8.72
2023-11-08T02:48:12.346Z,8.65
2023-11-08T02:50:41.297Z,8.62
2023-11-08T02:53:08.987Z,8.59
2023-11-08T02:55:36.657Z,8.48
2023-11-08T02:58:04.250Z,8.38
2023-11-08T03:00:31.666Z,8.40
2023-11-08T03:02:59.392Z,8.36
2023-11-08T03:05:26.564Z,8.34
2023-11-08T03:07:54.776Z,8.34
2023-11-08T03:10:22.651Z,8.30
2023-11-08T03:12:54.698Z,8.22
2023-11-08T03:15:24.938Z,8.25
2023-11-08T03:17:53.211Z,8.21
2023-11-08T03:20:21.000Z,8.27
2023-11-08T03:22:48.566Z,8.24
2023-11-08T03:25:18.727Z,8.24
2023-11-08T03:27:47.794Z,8.21
2023-11-08T03:30:16.761Z,8.23
2023-11-08T03:32:44.817Z,8.24
2023-11-08T03:35:13.238Z,8.28
2023-11-08T03:37:44.487Z,8.30
2023-11-08T03:40:16.727Z,8.27
2023-11-08T03:42:45.441Z,8.22
2023-11-08T03:45:13.136Z,8.31
2023-11-08T03:47:41.476Z,8.34
2023-11-08T03:50:08.850Z,8.29
2023-11-08T03:52:37.103Z,8.31
2023-11-08T03:55:04.559Z,8.30
2023-11-08T03:57:32.024Z,8.23
2023-11-08T03:59:58.950Z,8.25
2023-11-08T04:02:26.354Z,8.28
2023-11-08T04:04:53.336Z,8.32
2023-11-08T04:07:20.657Z,8.22
2023-11-08T04:09:48.001Z,8.26
2023-11-08T04:12:15.523Z,8.25
2023-11-08T04:14:42.471Z,8.30
2023-11-08T04:17:10.198Z,8.30
2023-11-08T04:19:37.938Z,8.25
2023-11-08T04:22:06.739Z,8.30
2023-11-08T04:24:34.642Z,8.26
2023-11-08T04:27:04.450Z,8.23
2023-11-08T04:29:34.434Z,8.30
2023-11-08T04:32:01.687Z,8.33
2023-11-08T04:34:28.689Z,8.33
2023-11-08T04:36:55.844Z,8.25
2023-11-08T04:39:23.853Z,8.22
2023-11-08T04:41:52.851Z,8.29
2023-11-08T04:44:20.649Z,8.30
2023-11-08T04:46:48.112Z,8.30
2023-11-08T04:49:15.847Z,8.27
2023-11-08T04:51:43.944Z,8.29
2023-11-08T04:54:10.972Z,8.27
2023-11-08T04:56:38.187Z,8.23
2023-11-08T04:59:06.957Z,8.24
2023-11-08T05:01:34.045Z,8.28
2023-11-08T05:04:01.814Z,8.30
2023-11-08T05:06:29.382Z,8.26
2023-11-08T05:08:59.252Z,8.20
2023-11-08T05:11:26.798Z,8.23
2023-11-08T05:13:55.310Z,8.15
2023-11-08T05:16:23.051Z,8.21
2023-11-08T05:18:51.562Z,8.16
2023-11-08T05:21:24.380Z,8.19
2023-11-08T05:23:51.256Z,8.15
2023-11-08T05:26:19.886Z,8.19
2023-11-08T05:28:46.662Z,8.18
2023-11-08T05:31:13.851Z,8.21
2023-11-08T05:33:41.782Z,8.22
2023-11-08T05:36:09.166Z,8.22
2023-11-08T05:38:36.059Z,8.20
2023-11-08T05:41:03.280Z,8.21
2023-11-08T05:43:30.279Z,8.17
2023-11-08T05:45:57.706Z,8.20
2023-11-08T05:48:24.726Z,8.21
2023-11-08T05:50:51.944Z,8.25
2023-11-08T05:53:20.733Z,8.24
2023-11-08T05:55:47.853Z,8.32
2023-11-08T05:58:15.714Z,8.28
2023-11-08T06:00:43.115Z,8.36
2023-11-08T06:03:10.453Z,8.33
2023-11-08T06:05:39.028Z,8.32
2023-11-08T06:08:05.878Z,8.32
2023-11-08T06:10:34.556Z,8.32
2023-11-08T06:13:03.720Z,8.37
2023-11-08T06:15:30.952Z,8.36
2023-11-08T06:17:58.390Z,8.41
2023-11-08T06:20:25.665Z,8.48
2023-11-08T06:22:52.518Z,8.42
2023-11-08T06:25:19.876Z,8.42
2023-11-08T06:27:49.559Z,8.42
2023-11-08T06:30:18.095Z,8.41
2023-11-08T06:32:45.030Z,8.40
2023-11-08T06:35:12.173Z,8.47
2023-11-08T06:37:39.168Z,8.50
2023-11-08T06:40:08.341Z,8.52
2023-11-08T06:42:35.269Z,8.52
2023-11-08T06:45:05.272Z,8.54
2023-11-08T06:47:32.278Z,8.49
2023-11-08T06:49:59.475Z,8.47
2023-11-08T06:52:29.886Z,8.54
2023-11-08T06:54:57.225Z,8.54
2023-11-08T06:57:24.197Z,8.47
2023-11-08T06:59:52.401Z,8.46
2023-11-08T07:02:21.090Z,8.55
2023-11-08T07:04:48.287Z,8.53
2023-11-08T07:07:15.277Z,8.58
2023-11-08T07:09:42.482Z,8.61
2023-11-08T07:12:12.289Z,8.60
2023-11-08T07:14:40.615Z,8.62
2023-11-08T07:17:07.865Z,8.70
2023-11-08T07:19:35.095Z,8.61
2023-11-08T07:22:02.034Z,8.64
2023-11-08T07:24:29.209Z,8.74
2023-11-08T07:26:56.148Z,8.79
2023-11-08T07:29:23.584Z,8.72
2023-11-08T07:31:53.314Z,8.72
2023-11-08T07:34:23.844Z,8.61
2023-11-08T07:36:53.856Z,8.69
2023-11-08T07:39:27.194Z,8.72
2023-11-08T07:41:54.829Z,8.84
2023-11-08T07:44:22.059Z,8.89
2023-11-08T07:46:49.133Z,8.95
2023-11-08T07:49:17.334Z,9.19
2023-11-08T07:51:45.555Z,9.27
2023-11-08T07:54:12.664Z,9.42
2023-11-08T07:56:39.500Z,9.49
2023-11-08T07:59:06.795Z,9.59
2023-11-08T08:01:33.663Z,9.70
2023-11-08T08:04:01.530Z,9.72
2023-11-08T08:06:28.526Z,9.90
2023-11-08T08:08:56.887Z,9.92
2023-11-08T08:11:23.875Z,9.95
2023-11-08T08:13:51.208Z,9.89
2023-11-08T08:16:21.057Z,9.79
2023-11-08T08:18:49.054Z,9.76
2023-11-08T08:21:16.079Z,10.02
2023-11-08T08:23:51.200Z,10.19
2023-11-08T08:26:21.596Z,10.17
2023-11-08T08:28:50.810Z,10.39
2023-11-08T08:31:18.339Z,10.38
2023-11-08T08:33:46.451Z,10.36
2023-11-08T08:36:13.561Z,10.33
2023-11-08T08:38:40.712Z,10.47
2023-11-08T08:41:07.541Z,10.63
2023-11-08T08:43:34.663Z,10.66
2023-11-08T08:46:01.536Z,10.90
2023-11-08T08:48:29.982Z,11.15
2023-11-08T08:50:56.890Z,11.40
2023-11-08T08:53:24.016Z,11.70
2023-11-08T08:55:50.825Z,11.75
2023-11-08T08:58:20.810Z,11.60
2023-11-08T09:00:47.756Z,11.55
2023-11-08T09:03:17.283Z,11.67
2023-11-08T09:05:44.417Z,11.63
2023-11-08T09:08:11.571Z,11.52
2023-11-08T09:10:38.596Z,11.68
2023-11-08T09:13:06.521Z,11.83
2023-11-08T09:15:33.585Z,11.70
2023-11-08T09:18:00.872Z,11.75
2023-11-08T09:20:27.769Z,11.90
2023-11-08T09:22:55.069Z,11.99
2023-11-08T09:25:21.912Z,12.35
2023-11-08T09:27:49.212Z,12.12
2023-11-08T09:30:16.166Z,12.34
2023-11-08T09:32:45.419Z,13.02
2023-11-08T09:35:12.472Z,12.50
2023-11-08T09:37:40.116Z,12.11
2023-11-08T09:40:11.052Z,12.37
2023-11-08T09:42:39.342Z,12.65
2023-11-08T09:45:08.571Z,12.61
2023-11-08T09:47:38.768Z,12.65
2023-11-08T09:50:15.905Z,12.37
2023-11-08T09:52:43.200Z,12.81
2023-11-08T09:55:13.697Z,12.97
2023-11-08T09:57:44.896Z,13.17
2023-11-08T10:00:12.371Z,13.13
2023-11-08T10:02:41.259Z,12.81
2023-11-08T10:05:08.780Z,12.78
2023-11-08T10:07:39.189Z,12.98
2023-11-08T10:10:08.119Z,13.09
2023-11-08T10:12:35.326Z,13.10
2023-11-08T10:15:04.900Z,12.89
2023-11-08T10:19:30.858Z,13.21
2023-11-08T10:20:37.175Z,13.44
2023-11-08T10:23:08.715Z,13.21
2023-11-08T10:25:36.025Z,13.42
2023-11-08T10:28:08.275Z,13.40
2023-11-08T10:30:40.200Z,13.36
2023-11-08T10:33:08.540Z,13.68
2023-11-08T10:35:43.638Z,14.04
2023-11-08T10:38:12.024Z,13.53
2023-11-08T10:40:39.163Z,13.35
2023-11-08T10:43:06.370Z,13.66
2023-11-08T10:45:36.045Z,13.33
2023-11-08T10:48:05.213Z,13.37
2023-11-08T10:50:33.517Z,13.51
2023-11-08T10:53:00.629Z,13.93
2023-11-08T10:55:27.754Z,13.61
2023-11-08T10:57:59.494Z,13.51
2023-11-08T11:00:27.732Z,13.21
2023-11-08T11:03:06.803Z,12.88
2023-11-08T11:05:38.408Z,12.58
2023-11-08T11:08:07.214Z,12.50
2023-11-08T11:10:34.735Z,12.63
2023-11-08T11:13:15.010Z,12.46
2023-11-08T11:16:14.385Z,12.42
2023-11-08T11:18:47.454Z,12.47
2023-11-08T11:21:24.121Z,12.39
2023-11-08T11:23:52.406Z,12.22
2023-11-08T11:26:56.005Z,12.30
2023-11-08T11:29:23.120Z,12.18
2023-11-08T11:31:50.288Z,12.35
2023-11-08T11:34:23.621Z,12.31
2023-11-08T11:37:15.335Z,12.18
2023-11-08T11:40:04.535Z,12.21
2023-11-08T11:42:32.632Z,12.01
2023-11-08T11:45:01.500Z,11.87
2023-11-08T11:47:31.952Z,11.92
2023-11-08T11:50:03.155Z,11.91
2023-11-08T11:52:32.568Z,11.96
2023-11-08T11:55:02.212Z,11.91
2023-11-08T11:57:31.062Z,11.90
2023-11-08T12:00:01.515Z,11.76
2023-11-08T12:02:30.413Z,11.75
2023-11-08T12:04:59.364Z,11.70
2023-11-08T12:07:26.797Z,11.69
2023-11-08T12:09:54.715Z,11.77
2023-11-08T12:12:28.898Z,11.91
2023-11-08T12:15:12.678Z,11.84
2023-11-08T12:17:39.873Z,11.94
2023-11-08T12:20:08.170Z,11.74
2023-11-08T12:22:37.529Z,11.76
2023-11-08T12:25:06.938Z,11.67
2023-11-08T12:27:33.819Z,11.64
2023-11-08T12:30:00.995Z,11.58
2023-11-08T12:32:28.526Z,11.63
2023-11-08T12:34:55.669Z,11.69
2023-11-08T12:37:23.505Z,11.71
2023-11-08T12:39:51.575Z,11.72
2023-11-08T12:42:18.529Z,11.77
2023-11-08T12:44:50.137Z,11.73
2023-11-08T12:47:17.217Z,11.83
2023-11-08T12:49:45.460Z,11.85
2023-11-08T12:52:13.536Z,12.00
2023-11-08T12:54:40.778Z,11.93
2023-11-08T12:57:07.739Z,11.90
2023-11-08T12:59:44.724Z,11.84
2023-11-08T13:02:15.067Z,11.89
2023-11-08T13:04:43.125Z,11.90
2023-11-08T13:07:10.884Z,11.98
2023-11-08T13:09:41.595Z,11.99
2023-11-08T13:12:09.294Z,11.84
2023-11-08T13:14:36.483Z,11.88
2023-11-08T13:17:04.869Z,11.98
2023-11-08T13:19:32.241Z,11.99
2023-11-08T13:21:59.238Z,12.10
2023-11-08T13:24:26.418Z,12.15
2023-11-08T13:26:54.156Z,12.03
2023-11-08T13:29:22.098Z,12.03
2023-11-08T13:31:50.312Z,12.11
2023-11-08T13:34:17.785Z,12.02
2023-11-08T13:36:44.852Z,11.99
2023-11-08T13:39:12.277Z,11.96
2023-11-08T13:41:39.319Z,11.90
2023-11-08T13:44:06.766Z,11.87
2023-11-08T13:46:33.582Z,11.84
2023-11-08T13:49:01.970Z,11.77
2023-11-08T13:51:29.076Z,11.75
2023-11-08T13:53:56.154Z,11.64
2023-11-08T13:56:24.373Z,11.65
2023-11-08T13:58:51.507Z,11.59
2023-11-08T14:01:18.685Z,11.54
2023-11-08T14:03:46.028Z,11.56
2023-11-08T14:06:13.904Z,11.52
2023-11-08T14:08:41.639Z,11.46
2023-11-08T14:11:09.376Z,11.44
2023-11-08T14:13:36.932Z,11.30
2023-11-08T14:16:06.334Z,11.37
2023-11-08T14:18:33.663Z,11.31
2023-11-08T14:21:03.298Z,11.26
2023-11-08T14:23:30.356Z,11.28
2023-11-08T14:25:57.346Z,11.27
2023-11-08T14:28:24.849Z,11.14
2023-11-08T14:30:51.939Z,11.06
2023-11-08T14:33:19.152Z,11.00
2023-11-08T14:35:46.227Z,10.91
2023-11-08T14:38:13.750Z,10.92
2023-11-08T14:40:41.830Z,10.85
2023-11-08T14:43:10.799Z,10.88
2023-11-08T14:45:37.818Z,10.84
2023-11-08T14:48:06.286Z,10.83
2023-11-08T14:50:33.197Z,10.87
2023-11-08T14:53:03.633Z,10.80
2023-11-08T14:55:30.614Z,10.74
2023-11-08T14:57:57.762Z,10.69
2023-11-08T15:00:25.196Z,10.65
2023-11-08T15:02:53.606Z,10.59
2023-11-08T15:05:21.153Z,10.53
2023-11-08T15:09:46.622Z,10.54
2023-11-08T15:10:37.282Z,10.48
2023-11-08T15:13:04.997Z,10.46
2023-11-08T15:15:31.842Z,10.41
2023-11-08T15:17:59.008Z,10.38
2023-11-08T15:20:25.973Z,10.29
2023-11-08T15:23:00.124Z,10.26
2023-11-08T15:25:27.067Z,10.16
2023-11-08T15:27:54.396Z,10.26
2023-11-08T15:30:21.365Z,10.22
2023-11-08T15:32:48.684Z,10.12
2023-11-08T15:35:15.709Z,10.05
2023-11-08T15:37:42.853Z,9.94
2023-11-08T15:40:10.240Z,9.85
2023-11-08T15:42:37.355Z,9.75
2023-11-08T15:45:05.432Z,9.67
2023-11-08T15:47:32.592Z,9.63
2023-11-08T15:49:59.456Z,9.56
2023-11-08T15:52:26.557Z,9.50
2023-11-08T15:54:53.408Z,9.41
2023-11-08T15:57:22.190Z,9.28
2023-11-08T15:59:48.988Z,9.19
2023-11-08T16:02:17.756Z,9.07
2023-11-08T16:04:44.998Z,8.99
2023-11-08T16:07:13.545Z,8.86
2023-11-08T16:09:42.095Z,8.71
2023-11-08T16:12:09.912Z,8.60
2023-11-08T16:14:37.425Z,8.56
2023-11-08T16:17:05.268Z,8.46
2023-11-08T16:19:32.325Z,8.41
2023-11-08T16:21:59.627Z,8.33
2023-11-08T16:24:26.499Z,8.32
2023-11-08T16:26:54.682Z,8.31
2023-11-08T16:29:50.230Z,8.34
2023-11-08T16:32:34.369Z,8.36
2023-11-08T16:34:58.071Z,8.41
2023-11-08T16:37:25.712Z,8.39
2023-11-08T16:39:56.498Z,8.40
2023-11-08T16:42:24.118Z,8.37
2023-11-08T16:44:51.336Z,8.30
2023-11-08T16:47:18.553Z,8.30
2023-11-08T16:49:51.786Z,8.27
2023-11-08T16:52:19.212Z,8.27
2023-11-08T16:54:46.138Z,8.26
2023-11-08T16:57:13.280Z,8.24
2023-11-08T16:59:40.205Z,8.33
2023-11-08T17:02:07.629Z,8.38
2023-11-08T17:04:38.188Z,8.43
2023-11-08T17:07:06.039Z,8.55
2023-11-08T17:09:37.015Z,8.53
2023-11-08T17:12:05.308Z,8.47
2023-11-08T17:14:32.173Z,8.38
2023-11-08T17:16:59.444Z,8.33
2023-11-08T17:19:26.966Z,8.23
2023-11-08T17:21:54.356Z,8.12
2023-11-08T17:24:21.315Z,7.95
2023-11-08T17:26:48.448Z,7.82
2023-11-08T17:29:15.292Z,7.75
2023-11-08T17:31:42.417Z,7.66
2023-11-08T17:34:11.090Z,7.56
2023-11-08T17:36:41.035Z,7.43
2023-11-08T17:39:09.515Z,7.34
2023-11-08T17:41:38.130Z,7.32
2023-11-08T17:44:07.801Z,7.18
2023-11-08T17:46:38.669Z,7.21
2023-11-08T17:49:06.462Z,7.09
2023-11-08T17:51:33.663Z,7.05
2023-11-08T17:54:01.113Z,7.02
2023-11-08T17:56:28.257Z,6.97
2023-11-08T17:58:55.143Z,6.93
2023-11-08T18:01:23.419Z,6.86
2023-11-08T18:03:50.457Z,6.84
2023-11-08T18:06:18.378Z,6.83
2023-11-08T18:08:46.339Z,6.77
2023-11-08T18:11:15.166Z,6.74
2023-11-08T18:13:46.133Z,6.72
2023-11-08T18:16:13.301Z,6.67
2023-11-08T18:18:41.556Z,6.68
2023-11-08T18:21:08.740Z,6.63
2023-11-08T18:23:36.770Z,6.54
2023-11-08T18:26:04.748Z,6.50
2023-11-08T18:28:31.679Z,6.43
2023-11-08T18:30:59.077Z,6.41
2023-11-08T18:33:27.398Z,6.39
2023-11-08T18:35:54.663Z,6.43
2023-11-08T18:38:22.361Z,6.37
2023-11-08T18:40:51.577Z,6.30
2023-11-08T18:43:18.529Z,6.21
2023-11-08T18:45:45.828Z,6.24
2023-11-08T18:48:12.918Z,6.12
2023-11-08T18:50:41.678Z,6.10
2023-11-08T18:53:09.779Z,6.09
2023-11-08T18:55:36.916Z,6.09
2023-11-08T18:58:03.958Z,6.08
2023-11-08T19:00:31.202Z,6.01
2023-11-08T19:02:58.044Z,5.95
2023-11-08T19:05:25.236Z,5.92
2023-11-08T19:07:52.131Z,5.88
2023-11-08T19:10:19.669Z,5.87
2023-11-08T19:12:47.119Z,5.87
2023-11-08T19:15:15.109Z,5.86
2023-11-08T19:17:42.059Z,5.87
2023-11-08T19:20:11.303Z,5.90
2023-11-08T19:22:38.624Z,5.82
2023-11-08T19:25:06.514Z,5.78
2023-11-08T19:27:36.900Z,5.81
2023-11-08T19:30:04.903Z,5.75
2023-11-08T19:32:31.731Z,5.81
2023-11-08T19:35:03.488Z,5.77
2023-11-08T19:37:30.349Z,5.76
2023-11-08T19:39:57.909Z,5.66
2023-11-08T19:42:24.783Z,5.71
2023-11-08T19:44:56.308Z,5.69
2023-11-08T19:47:23.662Z,5.69
2023-11-08T19:49:53.806Z,5.59
2023-11-08T19:52:22.627Z,5.60
2023-11-08T19:54:53.434Z,5.55
2023-11-08T19:57:23.991Z,5.54
2023-11-08T19:59:54.826Z,5.52
2023-11-08T20:02:21.741Z,5.54
2023-11-08T20:04:48.877Z,5.54
2023-11-08T20:07:15.896Z,5.50
2023-11-08T20:09:43.051Z,5.51
2023-11-08T20:12:10.002Z,5.44
2023-11-08T20:14:37.146Z,5.40
2023-11-08T20:17:04.148Z,5.33
2023-11-08T20:19:31.350Z,5.29
2023-11-08T20:21:58.219Z,5.23
2023-11-08T20:24:25.529Z,5.26
2023-11-08T20:26:52.437Z,5.26
2023-11-08T20:29:19.536Z,5.26
2023-11-08T20:31:47.252Z,5.20
2023-11-08T20:34:14.506Z,5.21
2023-11-08T20:36:41.434Z,5.18
2023-11-08T20:39:08.528Z,5.22
2023-11-08T20:41:35.435Z,5.23
2023-11-08T20:44:02.656Z,5.35
2023-11-08T20:46:29.521Z,5.22
2023-11-08T20:48:56.736Z,5.24
2023-11-08T20:51:26.692Z,5.16
2023-11-08T20:53:54.033Z,5.12
2023-11-08T20:56:23.689Z,5.09
2023-11-08T20:58:50.884Z,5.08
2023-11-08T21:01:20.637Z,5.07
2023-11-08T21:03:48.712Z,5.05
2023-11-08T21:06:18.453Z,5.02
2023-11-08T21:08:45.709Z,5.03
2023-11-08T21:11:13.595Z,5.05
2023-11-08T21:13:41.950Z,5.14
2023-11-08T21:16:09.751Z,5.11
2023-11-08T21:18:39.846Z,5.17
2023-11-08T21:21:08.113Z,5.18
2023-11-08T21:23:35.361Z,5.12
2023-11-08T21:26:05.033Z,5.25
2023-11-08T21:28:32.643Z,5.19
2023-11-08T21:31:00.349Z,5.17
2023-11-08T21:33:27.527Z,5.20
2023-11-08T21:35:54.431Z,5.16
2023-11-08T21:38:21.707Z,5.16
2023-11-08T21:40:48.849Z,5.22
2023-11-08T21:43:16.060Z,5.17
2023-11-08T21:45:46.347Z,5.24
2023-11-08T21:48:13.450Z,5.15
2023-11-08T21:50:40.372Z,5.11
2023-11-08T21:53:07.454Z,5.16
2023-11-08T21:55:34.480Z,5.12
2023-11-08T21:58:02.289Z,5.11
2023-11-08T22:00:29.560Z,5.07
2023-11-08T22:02:59.559Z,5.03
2023-11-08T22:05:28.514Z,5.01
2023-11-08T22:07:56.120Z,4.95
2023-11-08T22:10:23.070Z,4.92
2023-11-08T22:12:51.804Z,4.91
2023-11-08T22:15:18.733Z,4.98
2023-11-08T22:17:46.573Z,4.93
2023-11-08T22:20:13.651Z,4.91
2023-11-08T22:22:41.023Z,4.90
2023-11-08T22:25:08.001Z,4.90
2023-11-08T22:27:35.373Z,4.97
2023-11-08T22:30:02.277Z,4.81
2023-11-08T22:32:29.413Z,4.72
2023-11-08T22:34:56.266Z,4.67
2023-11-08T22:37:26.129Z,4.58
2023-11-08T22:39:53.029Z,4.45
2023-11-08T22:42:21.797Z,4.43
2023-11-08T22:44:48.755Z,4.46
2023-11-08T22:47:16.189Z,4.45
2023-11-08T22:49:43.169Z,4.45
2023-11-08T22:52:10.406Z,4.42
2023-11-08T22:54:38.277Z,4.52
2023-11-08T22:57:05.666Z,4.57
2023-11-08T22:59:32.613Z,4.48
2023-11-08T23:02:00.672Z,4.43
2023-11-08T23:04:27.703Z,4.29
2023-11-08T23:06:55.406Z,4.29
2023-11-08T23:09:23.008Z,4.30
2023-11-08T23:11:50.416Z,4.32
2023-11-08T23:14:17.206Z,4.36
2023-11-08T23:16:44.482Z,4.48
2023-11-08T23:19:11.503Z,4.58
2023-11-08T23:21:38.638Z,4.51
2023-11-08T23:24:06.262Z,4.46
2023-11-08T23:26:33.705Z,4.42
2023-11-08T23:29:00.733Z,4.31
2023-11-08T23:31:27.814Z,4.32
2023-11-08T23:33:54.900Z,4.28
2023-11-08T23:36:22.266Z,4.26
2023-11-08T23:38:49.536Z,4.17
2023-11-08T23:41:16.756Z,4.15
2023-11-08T23:43:47.169Z,4.16
2023-11-08T23:46:15.874Z,4.12
2023-11-08T23:48:43.747Z,4.15
2023-11-08T23:51:13.127Z,4.20
2023-11-08T23:53:39.934Z,4.11
2023-11-08T23:56:07.634Z,4.13
2023-11-08T23:58:34.479Z,4.16
